createdAt,value
2023-02-23T00:01:29.075Z,38.47
2023-02-23T00:03:57.285Z,34.10
2023-02-23T00:06:25.990Z,35.55
2023-02-23T00:08:53.074Z,37.40
2023-02-23T00:11:21.356Z,41.80
2023-02-23T00:13:50.209Z,43.20
2023-02-23T00:16:22.736Z,42.60
2023-02-23T00:18:54.920Z,44.10
2023-02-23T00:21:35.318Z,44.63
2023-02-23T00:24:08.819Z,45.05
2023-02-23T00:26:37.439Z,43.40
2023-02-23T00:29:07.093Z,42.83
2023-02-23T00:31:34.264Z,44.88
2023-02-23T00:34:02.711Z,43.40
2023-02-23T00:36:34.065Z,41.92
2023-02-23T00:39:20.600Z,39.95
2023-02-23T00:41:52.319Z,37.95
2023-02-23T00:44:21.001Z,40.97
2023-02-23T00:46:51.629Z,42.67
2023-02-23T00:49:19.642Z,39.40
2023-02-23T00:51:47.018Z,39.03
2023-02-23T00:54:15.309Z,44.63
2023-02-23T00:56:42.309Z,41.30
2023-02-23T00:59:09.090Z,42.25
2023-02-23T01:01:37.474Z,38.72
2023-02-23T01:04:04.760Z,42.20
2023-02-23T01:06:32.470Z,38.20
2023-02-23T01:08:59.101Z,40.75
2023-02-23T01:11:30.966Z,43.83
2023-02-23T01:13:59.986Z,44.75
2023-02-23T01:16:29.908Z,45.60
2023-02-23T01:18:58.309Z,46.85
2023-02-23T01:21:26.257Z,47.42
2023-02-23T01:23:53.759Z,48.45
2023-02-23T01:26:21.961Z,48.78
2023-02-23T01:28:50.507Z,47.28
2023-02-23T01:31:17.458Z,48.60
2023-02-23T01:33:44.542Z,47.75
2023-02-23T01:36:11.052Z,45.58
2023-02-23T01:38:37.880Z,44.83
2023-02-23T01:41:05.045Z,47.05
2023-02-23T01:43:31.551Z,43.75
2023-02-23T01:46:00.933Z,47.55
2023-02-23T01:48:32.618Z,47.58
2023-02-23T01:51:10.796Z,47.50
2023-02-23T01:53:42.645Z,45.92
2023-02-23T01:56:14.384Z,45.33
2023-02-23T01:58:45.879Z,49.28
2023-02-23T02:01:13.215Z,49.28
2023-02-23T02:03:43.927Z,46.05
2023-02-23T02:06:14.579Z,46.95
2023-02-23T02:08:46.315Z,44.42
2023-02-23T02:11:30.598Z,40.83
2023-02-23T02:14:05.009Z,46.60
2023-02-23T02:16:43.979Z,43.57
2023-02-23T02:19:28.866Z,42.50
2023-02-23T02:22:17.100Z,38.90
2023-02-23T02:25:17.629Z,42.05
2023-02-23T02:27:57.431Z,40.35
2023-02-23T02:30:30.071Z,44.30
2023-02-23T02:33:14.886Z,46.45
2023-02-23T02:36:10.068Z,46.27
2023-02-23T02:38:53.580Z,48.70
2023-02-23T02:41:35.748Z,48.95
2023-02-23T02:44:49.834Z,47.47
2023-02-23T02:47:34.613Z,41.40
2023-02-23T02:50:14.539Z,44.23
2023-02-23T02:52:47.723Z,44.00
2023-02-23T02:55:35.199Z,46.65
2023-02-23T02:58:04.511Z,47.63
2023-02-23T03:01:01.434Z,45.95
2023-02-23T03:03:55.541Z,45.45
2023-02-23T03:06:57.480Z,48.42
2023-02-23T03:10:06.279Z,46.00
2023-02-23T03:13:03.483Z,44.83
2023-02-23T03:15:57.399Z,46.67
2023-02-23T03:19:02.526Z,47.78
2023-02-23T03:22:02.367Z,46.38
2023-02-23T03:24:56.912Z,45.55
2023-02-23T03:28:02.935Z,46.33
2023-02-23T03:31:04.108Z,46.58
2023-02-23T03:34:03.104Z,48.45
2023-02-23T03:36:54.492Z,46.58
2023-02-23T03:39:57.971Z,50.35
2023-02-23T03:42:49.052Z,49.60
2023-02-23T03:45:38.466Z,48.15
2023-02-23T03:48:28.443Z,46.15
2023-02-23T03:51:18.247Z,47.88
2023-02-23T03:54:12.751Z,49.17
2023-02-23T03:57:03.131Z,48.22
2023-02-23T03:59:55.635Z,47.53
2023-02-23T04:02:42.108Z,49.47
2023-02-23T04:05:33.042Z,46.15
2023-02-23T04:08:20.889Z,47.03
2023-02-23T04:11:12.701Z,47.72
2023-02-23T04:13:40.395Z,46.00
2023-02-23T04:16:09.018Z,50.45
2023-02-23T04:18:38.760Z,47.28
2023-02-23T04:21:06.673Z,49.95
2023-02-23T04:23:33.204Z,48.65
2023-02-23T04:25:59.775Z,45.63
2023-02-23T04:28:27.820Z,45.88
2023-02-23T04:30:54.398Z,47.92
2023-02-23T04:33:22.281Z,47.03
2023-02-23T04:35:49.156Z,46.97
2023-02-23T04:38:15.724Z,47.42
2023-02-23T04:40:42.213Z,48.83
2023-02-23T04:43:11.828Z,49.45
2023-02-23T04:45:38.561Z,51.92
2023-02-23T04:48:05.578Z,50.50
2023-02-23T04:50:32.695Z,48.05
2023-02-23T04:52:59.364Z,48.45
2023-02-23T04:55:26.449Z,48.80
2023-02-23T04:57:59.064Z,49.97
2023-02-23T05:00:26.638Z,51.15
2023-02-23T05:02:53.200Z,50.05
2023-02-23T05:05:19.736Z,46.58
2023-02-23T05:07:46.245Z,50.40
2023-02-23T05:10:12.766Z,50.60
2023-02-23T05:12:39.250Z,49.70
2023-02-23T05:15:06.401Z,50.20
2023-02-23T05:17:32.882Z,49.58
2023-02-23T05:19:59.393Z,49.72
2023-02-23T05:22:25.919Z,51.45
2023-02-23T05:24:52.428Z,51.33
2023-02-23T05:27:19.130Z,51.47
2023-02-23T05:29:45.666Z,50.85
2023-02-23T05:32:12.365Z,52.45
2023-02-23T05:34:39.213Z,51.45
2023-02-23T05:37:06.221Z,50.65
2023-02-23T05:39:32.933Z,50.63
2023-02-23T05:41:59.467Z,50.75
2023-02-23T05:44:26.062Z,50.88
2023-02-23T05:46:52.936Z,50.80
2023-02-23T05:49:19.417Z,51.83
2023-02-23T05:51:45.872Z,51.58
2023-02-23T05:54:13.466Z,49.47
2023-02-23T05:56:41.152Z,52.83
2023-02-23T05:59:07.817Z,50.10
2023-02-23T06:01:34.322Z,51.33
2023-02-23T06:04:00.925Z,53.83
2023-02-23T06:06:28.470Z,54.83
2023-02-23T06:08:55.163Z,54.88
2023-02-23T06:11:21.972Z,53.40
2023-02-23T06:13:48.958Z,56.95
2023-02-23T06:16:15.858Z,53.72
2023-02-23T06:18:42.440Z,54.05
2023-02-23T06:21:08.928Z,55.50
2023-02-23T06:23:35.512Z,53.60
2023-02-23T06:26:02.284Z,51.40
2023-02-23T06:28:29.415Z,51.88
2023-02-23T06:30:56.125Z,53.03
2023-02-23T06:33:23.164Z,49.20
2023-02-23T06:35:49.933Z,50.03
2023-02-23T06:38:16.889Z,49.72
2023-02-23T06:40:43.698Z,51.40
2023-02-23T06:43:10.692Z,49.08
2023-02-23T06:45:37.279Z,51.60
2023-02-23T06:48:04.415Z,51.30
2023-02-23T06:50:31.019Z,51.47
2023-02-23T06:52:57.653Z,48.55
2023-02-23T06:55:24.536Z,48.15
2023-02-23T06:57:52.354Z,48.85
2023-02-23T07:00:19.334Z,50.75
2023-02-23T07:02:45.929Z,47.53
2023-02-23T07:05:12.438Z,46.50
2023-02-23T07:07:38.986Z,45.33
2023-02-23T07:10:06.274Z,49.10
2023-02-23T07:12:32.899Z,51.38
2023-02-23T07:14:59.399Z,50.67
2023-02-23T07:17:25.883Z,50.00
2023-02-23T07:19:52.502Z,52.55
2023-02-23T07:22:18.952Z,52.25
2023-02-23T07:24:46.280Z,52.55
2023-02-23T07:27:12.820Z,53.78
2023-02-23T07:29:39.296Z,50.90
2023-02-23T07:32:06.056Z,53.38
2023-02-23T07:34:32.640Z,50.70
2023-02-23T07:36:59.150Z,54.17
2023-02-23T07:39:25.737Z,47.95
2023-02-23T07:41:52.199Z,55.15
2023-02-23T07:44:19.526Z,51.13
2023-02-23T07:46:46.534Z,50.15
2023-02-23T07:49:13.872Z,53.38
2023-02-23T07:51:41.113Z,55.38
2023-02-23T07:54:07.719Z,54.35
2023-02-23T07:56:35.277Z,54.70
2023-02-23T07:59:02.641Z,53.25
2023-02-23T08:01:29.282Z,48.17
2023-02-23T08:03:55.925Z,52.42
2023-02-23T08:06:22.494Z,52.47
2023-02-23T08:08:49.195Z,51.60
2023-02-23T08:11:15.829Z,50.35
2023-02-23T08:13:42.545Z,52.63
2023-02-23T08:16:09.033Z,50.70
2023-02-23T08:18:35.685Z,45.72
2023-02-23T08:21:03.595Z,49.55
2023-02-23T08:23:34.935Z,48.55
2023-02-23T08:26:02.668Z,44.75
2023-02-23T08:28:30.846Z,49.22
2023-02-23T08:30:59.277Z,45.33
2023-02-23T08:33:25.952Z,48.08
2023-02-23T08:35:53.646Z,45.67
2023-02-23T08:38:20.425Z,50.95
2023-02-23T08:40:46.978Z,50.47
2023-02-23T08:43:13.487Z,44.63
2023-02-23T08:45:39.990Z,46.92
2023-02-23T08:48:07.819Z,45.55
2023-02-23T08:50:34.817Z,47.92
2023-02-23T08:53:01.386Z,48.85
2023-02-23T08:55:27.869Z,49.15
2023-02-23T08:57:54.368Z,45.75
2023-02-23T09:00:21.281Z,49.47
2023-02-23T09:02:48.297Z,51.58
2023-02-23T09:05:15.121Z,48.05
2023-02-23T09:07:45.067Z,47.13
2023-02-23T09:10:16.895Z,43.60
2023-02-23T09:12:43.417Z,48.38
2023-02-23T09:15:10.563Z,48.75
2023-02-23T09:17:37.998Z,47.00
2023-02-23T09:20:06.245Z,44.42
2023-02-23T09:22:32.791Z,40.00
2023-02-23T09:24:59.326Z,43.17
2023-02-23T09:27:26.102Z,38.95
2023-02-23T09:29:52.664Z,38.60
2023-02-23T09:32:19.370Z,39.25
2023-02-23T09:34:48.658Z,40.65
2023-02-23T09:37:15.743Z,35.70
2023-02-23T09:39:43.561Z,38.85
2023-02-23T09:42:17.044Z,39.40
2023-02-23T09:45:01.426Z,37.75
2023-02-23T09:47:27.921Z,38.00
2023-02-23T09:49:56.288Z,36.80
2023-02-23T09:52:28.111Z,31.85
2023-02-23T09:54:54.756Z,37.28
2023-02-23T09:57:36.605Z,32.67
2023-02-23T10:00:13.047Z,31.50
2023-02-23T10:03:00.918Z,29.00
2023-02-23T10:05:31.802Z,33.08
2023-02-23T10:08:16.508Z,32.05
2023-02-23T10:10:47.309Z,30.52
2023-02-23T10:13:31.876Z,31.20
2023-02-23T10:16:05.420Z,25.40
2023-02-23T10:18:52.292Z,20.40
2023-02-23T10:21:39.176Z,26.33
2023-02-23T10:24:26.936Z,26.45
2023-02-23T10:27:10.336Z,26.80
2023-02-23T10:29:51.602Z,25.80
2023-02-23T10:32:41.076Z,28.30
2023-02-23T10:35:14.741Z,23.48
2023-02-23T10:37:41.510Z,23.63
2023-02-23T10:40:16.637Z,22.13
2023-02-23T10:42:43.847Z,27.80
2023-02-23T10:45:19.657Z,21.35
2023-02-23T10:47:47.035Z,23.25
2023-02-23T10:50:15.048Z,23.80
2023-02-23T10:52:45.531Z,24.65
2023-02-23T10:55:28.675Z,25.95
2023-02-23T10:58:19.170Z,26.67
2023-02-23T11:00:55.523Z,24.15
2023-02-23T11:03:26.726Z,21.60
2023-02-23T11:05:53.832Z,24.67
2023-02-23T11:08:29.309Z,25.90
2023-02-23T11:10:57.129Z,24.27
2023-02-23T11:13:27.328Z,25.48
2023-02-23T11:16:10.744Z,25.67
2023-02-23T11:18:39.340Z,25.67
2023-02-23T11:21:12.333Z,22.40
2023-02-23T11:23:41.264Z,23.88
2023-02-23T11:26:41.703Z,26.73
2023-02-23T11:29:36.394Z,24.50
2023-02-23T11:32:31.500Z,24.00
2023-02-23T11:35:16.400Z,21.80
2023-02-23T11:37:42.921Z,25.37
2023-02-23T11:40:29.019Z,23.17
2023-02-23T11:43:19.056Z,24.00
2023-02-23T11:45:51.879Z,21.58
2023-02-23T11:48:22.211Z,20.85
2023-02-23T11:50:49.644Z,22.45
2023-02-23T11:53:29.980Z,17.42
2023-02-23T11:56:02.583Z,21.42
2023-02-23T11:58:39.388Z,21.73
2023-02-23T12:01:12.240Z,25.35
2023-02-23T12:03:47.764Z,21.65
2023-02-23T12:06:35.595Z,19.98
2023-02-23T12:09:05.249Z,23.25
2023-02-23T12:11:37.975Z,21.48
2023-02-23T12:14:18.745Z,22.30
2023-02-23T12:16:50.835Z,20.88
2023-02-23T12:19:20.313Z,22.02
2023-02-23T12:22:05.613Z,17.45
2023-02-23T12:25:04.918Z,15.65
2023-02-23T12:27:46.492Z,16.13
2023-02-23T12:30:45.837Z,17.30
2023-02-23T12:33:12.370Z,17.75
2023-02-23T12:35:45.669Z,18.10
2023-02-23T12:38:41.306Z,14.43
2023-02-23T12:41:19.176Z,17.83
2023-02-23T12:43:55.662Z,17.23
2023-02-23T12:46:26.698Z,18.92
2023-02-23T12:49:17.084Z,19.83
2023-02-23T12:51:51.628Z,19.23
2023-02-23T12:54:18.698Z,18.15
2023-02-23T12:57:12.557Z,18.77
2023-02-23T12:59:44.880Z,18.58
2023-02-23T13:02:33.705Z,18.90
2023-02-23T13:05:31.316Z,19.58
2023-02-23T13:08:23.425Z,19.15
2023-02-23T13:11:17.202Z,17.33
2023-02-23T13:13:59.990Z,20.90
2023-02-23T13:16:33.025Z,20.80
2023-02-23T13:19:19.578Z,21.63
2023-02-23T13:21:56.126Z,20.77
2023-02-23T13:24:47.365Z,20.88
2023-02-23T13:27:21.162Z,18.83
2023-02-23T13:29:49.833Z,20.30
2023-02-23T13:32:20.455Z,22.98
2023-02-23T13:35:12.949Z,19.77
2023-02-23T13:37:45.461Z,22.80
2023-02-23T13:40:46.612Z,18.85
2023-02-23T13:43:24.113Z,20.73
2023-02-23T13:46:01.845Z,21.25
2023-02-23T13:48:54.416Z,21.23
2023-02-23T13:51:27.025Z,17.88
2023-02-23T13:54:06.486Z,20.27
2023-02-23T13:56:42.165Z,19.92
2023-02-23T13:59:17.213Z,18.10
2023-02-23T14:01:46.207Z,19.15
2023-02-23T14:04:22.106Z,19.95
2023-02-23T14:07:22.171Z,19.48
2023-02-23T14:09:56.019Z,16.98
2023-02-23T14:12:39.857Z,19.45
2023-02-23T14:15:28.233Z,16.20
2023-02-23T14:18:02.518Z,15.52
2023-02-23T14:20:57.012Z,16.70
2023-02-23T14:23:23.641Z,17.08
2023-02-23T14:26:11.522Z,17.50
2023-02-23T14:28:44.582Z,17.83
2023-02-23T14:31:11.209Z,14.68
2023-02-23T14:33:48.435Z,17.45
2023-02-23T14:36:21.072Z,15.98
2023-02-23T14:39:01.134Z,18.15
2023-02-23T14:41:50.303Z,16.05
2023-02-23T14:44:34.817Z,16.50
2023-02-23T14:47:11.343Z,16.65
2023-02-23T14:49:43.590Z,19.10
2023-02-23T14:52:15.148Z,15.73
2023-02-23T14:54:41.682Z,17.00
2023-02-23T14:57:25.991Z,16.58
2023-02-23T15:00:07.189Z,15.32
2023-02-23T15:02:35.514Z,16.35
2023-02-23T15:05:18.009Z,18.63
2023-02-23T15:07:45.713Z,17.08
2023-02-23T15:10:46.018Z,19.48
2023-02-23T15:13:29.658Z,17.17
2023-02-23T15:15:58.742Z,17.20
2023-02-23T15:18:33.327Z,19.02
2023-02-23T15:21:12.059Z,17.48
2023-02-23T15:23:38.981Z,17.23
2023-02-23T15:26:33.025Z,15.82
2023-02-23T15:29:13.547Z,17.67
2023-02-23T15:31:50.163Z,16.20
2023-02-23T15:34:19.979Z,17.27
2023-02-23T15:36:57.735Z,18.52
2023-02-23T15:40:17.917Z,17.80
2023-02-23T15:42:48.243Z,17.88
2023-02-23T15:45:28.562Z,17.67
2023-02-23T15:47:57.538Z,19.35
2023-02-23T15:50:50.080Z,19.13
2023-02-23T15:53:38.155Z,16.45
2023-02-23T15:56:14.335Z,18.27
2023-02-23T15:58:56.366Z,16.45
2023-02-23T16:01:29.100Z,17.15
2023-02-23T16:04:05.562Z,18.42
2023-02-23T16:06:36.953Z,17.58
2023-02-23T16:09:20.980Z,15.93
2023-02-23T16:11:51.115Z,19.08
2023-02-23T16:14:20.067Z,16.58
2023-02-23T16:17:08.473Z,15.73
2023-02-23T16:19:40.975Z,14.63
2023-02-23T16:22:19.779Z,15.65
2023-02-23T16:24:56.532Z,13.25
2023-02-23T16:27:24.797Z,12.88
2023-02-23T16:30:00.222Z,15.77
2023-02-23T16:32:37.829Z,15.85
2023-02-23T16:35:17.349Z,15.63
2023-02-23T16:38:12.703Z,15.10
2023-02-23T16:40:40.976Z,14.70
2023-02-23T16:43:08.173Z,15.60
2023-02-23T16:45:35.143Z,16.27
2023-02-23T16:48:03.406Z,16.02
2023-02-23T16:50:30.552Z,14.82
2023-02-23T16:52:57.071Z,15.68
2023-02-23T16:55:26.336Z,16.73
2023-02-23T16:58:03.984Z,17.17
2023-02-23T17:00:32.896Z,17.35
2023-02-23T17:03:05.671Z,17.23
2023-02-23T17:05:32.893Z,16.83
2023-02-23T17:07:59.439Z,16.98
2023-02-23T17:10:32.686Z,16.90
2023-02-23T17:13:05.491Z,18.70
2023-02-23T17:15:41.338Z,17.55
2023-02-23T17:18:07.933Z,18.13
2023-02-23T17:20:34.425Z,17.23
2023-02-23T17:23:02.716Z,17.33
2023-02-23T17:25:29.385Z,17.65
2023-02-23T17:27:57.688Z,17.33
2023-02-23T17:30:24.853Z,16.83
2023-02-23T17:32:53.421Z,18.13
2023-02-23T17:35:20.348Z,16.08
2023-02-23T17:37:46.964Z,16.20
2023-02-23T17:40:26.165Z,17.30
2023-02-23T17:42:53.614Z,17.15
2023-02-23T17:45:20.174Z,17.33
2023-02-23T17:47:46.732Z,16.20
2023-02-23T17:50:13.321Z,17.05
2023-02-23T17:52:39.903Z,18.70
2023-02-23T17:55:07.282Z,17.83
2023-02-23T17:57:33.770Z,19.10
2023-02-23T18:00:00.303Z,17.85
2023-02-23T18:02:26.894Z,17.67
2023-02-23T18:04:53.646Z,18.25
2023-02-23T18:07:21.155Z,17.20
2023-02-23T18:09:50.130Z,17.67
2023-02-23T18:12:17.947Z,18.10
2023-02-23T18:14:45.499Z,14.77
2023-02-23T18:17:13.525Z,17.48
2023-02-23T18:19:40.052Z,17.63
2023-02-23T18:22:06.820Z,17.52
2023-02-23T18:24:33.498Z,19.77
2023-02-23T18:27:03.459Z,17.55
2023-02-23T18:29:32.013Z,16.60
2023-02-23T18:32:00.226Z,16.50
2023-02-23T18:34:28.743Z,17.60
2023-02-23T18:36:57.345Z,17.60
2023-02-23T18:39:24.046Z,18.13
2023-02-23T18:41:56.763Z,17.60
2023-02-23T18:44:25.583Z,16.27
2023-02-23T18:46:52.987Z,18.30
2023-02-23T18:49:22.266Z,18.50
2023-02-23T18:51:49.531Z,19.17
2023-02-23T18:54:19.081Z,16.00
2023-02-23T18:56:49.946Z,16.90
2023-02-23T18:59:16.754Z,16.95
2023-02-23T19:01:46.568Z,16.45
2023-02-23T19:04:13.213Z,17.63
2023-02-23T19:06:42.986Z,16.55
2023-02-23T19:09:12.543Z,14.18
2023-02-23T19:11:43.401Z,16.90
2023-02-23T19:14:16.088Z,15.77
2023-02-23T19:16:43.613Z,15.57
2023-02-23T19:19:10.134Z,16.10
2023-02-23T19:21:37.536Z,14.95
2023-02-23T19:24:05.608Z,16.23
2023-02-23T19:26:37.684Z,15.10
2023-02-23T19:29:12.371Z,17.58
2023-02-23T19:31:39.353Z,17.13
2023-02-23T19:34:10.616Z,16.48
2023-02-23T19:36:38.477Z,16.05
2023-02-23T19:39:17.613Z,16.05
2023-02-23T19:41:45.751Z,15.15
2023-02-23T19:44:12.244Z,16.98
2023-02-23T19:46:39.915Z,16.25
2023-02-23T19:49:18.731Z,17.45
2023-02-23T19:51:45.305Z,17.00
2023-02-23T19:54:12.015Z,14.82
2023-02-23T19:56:38.711Z,15.95
2023-02-23T19:59:23.356Z,17.02
2023-02-23T20:01:51.347Z,15.70
2023-02-23T20:04:19.203Z,15.60
2023-02-23T20:06:47.059Z,15.73
2023-02-23T20:09:23.984Z,16.92
2023-02-23T20:11:50.424Z,18.27
2023-02-23T20:14:17.178Z,18.65
2023-02-23T20:16:43.848Z,14.70
2023-02-23T20:19:11.553Z,18.48
2023-02-23T20:21:39.619Z,17.13
2023-02-23T20:24:06.403Z,16.67
2023-02-23T20:26:37.221Z,14.88
2023-02-23T20:29:13.641Z,14.63
2023-02-23T20:31:50.483Z,14.85
2023-02-23T20:34:21.093Z,16.95
2023-02-23T20:36:50.851Z,10.55
2023-02-23T20:39:17.796Z,9.30
2023-02-23T20:41:45.684Z,7.10
2023-02-23T20:44:13.221Z,7.45
2023-02-23T20:46:41.284Z,6.45
2023-02-23T20:49:12.702Z,6.40
2023-02-23T20:51:49.251Z,6.60
2023-02-23T20:54:18.782Z,4.75
2023-02-23T20:56:45.836Z,7.80
2023-02-23T20:59:17.286Z,5.15
2023-02-23T21:01:44.502Z,9.85
2023-02-23T21:04:23.637Z,5.95
2023-02-23T21:06:56.614Z,4.88
2023-02-23T21:09:25.735Z,9.65
2023-02-23T21:11:52.233Z,4.15
2023-02-23T21:14:18.793Z,4.85
2023-02-23T21:16:46.207Z,7.10
2023-02-23T21:19:14.654Z,10.43
2023-02-23T21:21:47.066Z,8.15
2023-02-23T21:24:15.123Z,8.05
2023-02-23T21:26:42.464Z,7.45
2023-02-23T21:29:11.719Z,6.53
2023-02-23T21:31:39.490Z,7.50
2023-02-23T21:34:08.117Z,7.30
2023-02-23T21:36:35.366Z,7.28
2023-02-23T21:39:01.899Z,6.55
2023-02-23T21:41:33.779Z,8.43
2023-02-23T21:44:01.552Z,6.15
2023-02-23T21:46:28.611Z,6.10
2023-02-23T21:48:55.185Z,7.18
2023-02-23T21:51:22.117Z,6.50
2023-02-23T21:53:48.924Z,7.28
2023-02-23T21:56:18.393Z,6.63
2023-02-23T21:58:53.051Z,6.30
2023-02-23T22:01:23.409Z,7.60
2023-02-23T22:03:50.781Z,6.85
2023-02-23T22:06:20.405Z,5.70
2023-02-23T22:08:49.917Z,4.53
2023-02-23T22:11:19.660Z,5.10
2023-02-23T22:13:51.039Z,4.38
2023-02-23T22:16:19.346Z,4.60
2023-02-23T22:18:46.639Z,3.88
2023-02-23T22:21:13.927Z,3.63
2023-02-23T22:23:41.629Z,4.45
2023-02-23T22:26:09.024Z,4.47
2023-02-23T22:28:35.987Z,5.70
2023-02-23T22:31:04.345Z,5.20
2023-02-23T22:33:30.985Z,4.10
2023-02-23T22:36:13.519Z,7.35
2023-02-23T22:38:42.811Z,4.95
2023-02-23T22:41:12.483Z,4.65
2023-02-23T22:43:40.919Z,5.07
2023-02-23T22:46:08.147Z,5.43
2023-02-23T22:48:36.020Z,6.00
2023-02-23T22:51:03.176Z,4.85
2023-02-23T22:53:30.505Z,5.53
2023-02-23T22:55:57.107Z,5.78
2023-02-23T22:58:26.447Z,5.47
2023-02-23T23:01:09.743Z,4.78
2023-02-23T23:03:39.630Z,5.15
2023-02-23T23:06:08.717Z,6.05
2023-02-23T23:08:43.307Z,5.07
2023-02-23T23:11:19.465Z,5.70
2023-02-23T23:13:48.916Z,5.32
2023-02-23T23:16:30.709Z,4.97
2023-02-23T23:19:02.639Z,4.40
2023-02-23T23:21:31.844Z,5.20
2023-02-23T23:24:01.277Z,4.72
2023-02-23T23:26:29.590Z,5.70
2023-02-23T23:28:58.118Z,6.07
2023-02-23T23:31:30.133Z,5.22
2023-02-23T23:34:02.441Z,5.82
2023-02-23T23:36:34.832Z,5.97
2023-02-23T23:39:02.800Z,6.05
2023-02-23T23:41:35.247Z,6.88
2023-02-23T23:44:05.292Z,6.05
2023-02-23T23:46:35.428Z,7.10
2023-02-23T23:49:08.621Z,6.28
2023-02-23T23:51:39.092Z,5.88
2023-02-23T23:54:07.994Z,6.38
2023-02-23T23:56:37.273Z,6.00
2023-02-23T23:59:08.596Z,5.13
